»·PEaware :: N261AB KVNY-KIFP

N261AB :: KVNY-KIFP

FLIGHT INFORMATION

Flight Status: Arrived
Operator: Privately registered:
United States
More flights under this callsign
Pilot: Brian K. (18535)
Aircraft: Unknown
(DA62)
More flights by this aircraft type
Origin: KVNY Van Nuys
United States
Destination: KIFP Laughlin/Bullhead Intl
United States
More flights between these airports :: More routes between these airports
Route: +NUAL9 PMD
File this flight plan on PilotEdge
Remarks:
Altitude:
(Current/Filed)
7,500ft
Speed:
(Current/Filed)
160kts
Departed: 11-Jan-19 09:46 AM
Arrived: 11-Jan-19 11:01 AM
Distance/Time
Traveled:
202nm/1:15
Distance/Time
To Go:
Arrived

Flight Plot

Page will automatically refresh every two minutes.

Flight plan parsing failed; only flown route is shown


Map Options




Map Legend


Flown Route
Filed Route
Departure Airport
Arrival Airport
Navaid (VOR, NDB)
Fix

Horizontal Profiles

Position Reports

Time Latitude Longitude Heading Altitude Ground
Speed
11-Jan-19 09:44 34.516576 -118.254562 56 7269ft 146kts
11-Jan-19 09:45 34.540855 -118.214395 56 7528ft 154kts
11-Jan-19 09:46 34.566590 -118.171774 56 7527ft 158kts
11-Jan-19 09:47 34.592536 -118.128727 56 7527ft 158kts
11-Jan-19 09:48 34.618684 -118.085298 56 7463ft 160kts
11-Jan-19 09:49 34.635834 -118.037509 80 7463ft 155kts
11-Jan-19 09:50 34.644315 -117.986363 80 7463ft 155kts
11-Jan-19 09:51 34.652792 -117.934778 80 7463ft 155kts
11-Jan-19 09:52 34.661206 -117.883381 80 7463ft 155kts
11-Jan-19 09:53 34.669621 -117.831832 80 7463ft 155kts
11-Jan-19 09:54 34.678018 -117.780305 80 7463ft 155kts
11-Jan-19 09:55 34.686320 -117.729125 80 7463ft 155kts
11-Jan-19 09:56 34.694676 -117.677494 80 7463ft 155kts
11-Jan-19 09:57 34.702985 -117.626020 80 7462ft 155kts
11-Jan-19 09:58 34.711312 -117.574342 79 7462ft 155kts
11-Jan-19 09:59 34.722131 -117.523429 74 7463ft 156kts
11-Jan-19 10:00 34.736071 -117.473373 70 7463ft 156kts
11-Jan-19 10:01 34.753078 -117.424482 66 7463ft 157kts
11-Jan-19 10:02 34.772932 -117.377314 62 7462ft 157kts
11-Jan-19 10:03 34.795736 -117.331795 58 7466ft 158kts
11-Jan-19 10:04 34.820680 -117.287583 70 7464ft 158kts
11-Jan-19 10:05 34.811084 -117.237249 110 7476ft 155kts
11-Jan-19 10:06 34.797181 -117.187284 111 7482ft 157kts
11-Jan-19 10:07 34.786878 -117.135376 93 7488ft 161kts
11-Jan-19 10:08 34.790572 -117.080753 82 7461ft 165kts
11-Jan-19 10:09 34.798321 -117.025604 80 7453ft 165kts
11-Jan-19 10:11 34.806781 -116.970368 79 7447ft 166kts
11-Jan-19 10:12 34.815330 -116.915136 79 7440ft 166kts
11-Jan-19 10:13 34.823948 -116.859436 79 7436ft 167kts
11-Jan-19 10:14 34.832520 -116.803899 79 7436ft 167kts
11-Jan-19 10:15 34.841074 -116.748269 79 7436ft 167kts
11-Jan-19 10:16 34.849585 -116.692736 79 7436ft 167kts
11-Jan-19 10:17 34.858090 -116.637057 79 7436ft 167kts
11-Jan-19 10:18 34.866581 -116.581291 79 7436ft 167kts
11-Jan-19 10:19 34.875043 -116.525552 79 7436ft 167kts
11-Jan-19 10:20 34.883463 -116.469901 79 7436ft 167kts
11-Jan-19 10:21 34.891864 -116.414195 79 7436ft 167kts
11-Jan-19 10:22 34.900246 -116.358503 79 7440ft 166kts
11-Jan-19 10:23 34.908463 -116.303688 80 7443ft 166kts
11-Jan-19 10:24 34.916698 -116.248540 80 7448ft 165kts
11-Jan-19 10:25 34.924902 -116.193431 80 7452ft 164kts
11-Jan-19 10:26 34.933021 -116.138690 80 7454ft 164kts
11-Jan-19 10:27 34.941116 -116.083931 80 7452ft 164kts
11-Jan-19 10:28 34.949173 -116.029278 80 7451ft 164kts
11-Jan-19 10:29 34.957280 -115.974469 80 7450ft 164kts
11-Jan-19 10:30 34.965404 -115.919601 80 7448ft 164kts
11-Jan-19 10:30 34.972095 -115.873865 80 7450ft 164kts
11-Jan-19 10:32 34.981401 -115.809912 80 7453ft 164kts
11-Jan-19 10:32 34.988015 -115.764292 80 7456ft 163kts
11-Jan-19 10:33 34.995926 -115.709559 80 7460ft 163kts
11-Jan-19 10:35 35.005106 -115.645868 80 7454ft 163kts
11-Jan-19 10:36 35.012908 -115.591511 80 7435ft 162kts
11-Jan-19 10:36 35.019300 -115.546409 78 7419ft 160kts
11-Jan-19 10:37 35.026971 -115.493010 78 7410ft 160kts
11-Jan-19 10:38 35.034593 -115.439471 78 7393ft 161kts
11-Jan-19 10:39 35.042204 -115.385726 78 7390ft 160kts
11-Jan-19 10:40 35.049751 -115.332282 79 7391ft 160kts
11-Jan-19 10:41 35.057237 -115.279115 79 7393ft 160kts
11-Jan-19 10:42 35.064775 -115.225397 79 7394ft 160kts
11-Jan-19 10:43 35.072252 -115.171834 78 7395ft 160kts
11-Jan-19 10:44 35.079672 -115.118118 78 7394ft 160kts
11-Jan-19 10:45 35.087132 -115.064269 77 7220ft 161kts
11-Jan-19 10:46 35.094408 -115.011707 75 6599ft 153kts
11-Jan-19 10:47 35.101316 -114.961667 74 5993ft 149kts
11-Jan-19 10:48 35.093525 -114.911577 103 5397ft 155kts
11-Jan-19 10:49 35.083209 -114.861213 97 4810ft 152kts
11-Jan-19 10:50 35.076255 -114.810863 80 4195ft 147kts
11-Jan-19 10:51 35.077355 -114.762201 85 3362ft 142kts
11-Jan-19 10:52 35.075484 -114.715154 85 2314ft 136kts
11-Jan-19 10:53 35.073470 -114.671134 83 1883ft 124kts
11-Jan-19 10:54 35.073349 -114.631528 75 2177ft 98kts
11-Jan-19 10:55 35.076731 -114.596380 76 2284ft 108kts
11-Jan-19 10:56 35.088126 -114.567664 30 2070ft 80kts
11-Jan-19 10:57 35.107816 -114.556692 7 1333ft 76kts
11-Jan-19 10:58 35.128997 -114.557272 357 1102ft 76kts
11-Jan-19 10:59 35.147627 -114.558837 358 715ft 59kts
11-Jan-19 11:00 35.155251 -114.559385 357 705ft 8kts
11-Jan-19 11:01 35.156681 -114.556519 6 705ft 7kts
11-Jan-19 11:02 35.158368 -114.556251 86 705ft 0kts

Navigation Log

Ident Type
Flight plan parsing failed, navigation log unavailable